< < Back
Terminal Aerodrome Forecast


Current Version              Previous Versions:   1  2  3  4  5  6  7  8  9  

Terminal Aerodrome Forecast

890
FTUS42 KCAE 210500
TAFAGS
TAF
KAGS 210520Z 2106/2206 VRB03KT P6SM SCT100 SCT250
      TEMPO 2110/2113 3SM BR
     FM211500 29008KT P6SM SKC=



Latest METAR

655
SAUS70 KWBC 210500 RRE
MTRAGS
METAR KAGS 210453Z AUTO 00000KT 10SM CLR 11/09 A2999 RMK AO2 SLP156
T01060094 402500039


USA.gov is the U.S. government's official web portal to all federal, state and local government web resources and services.